createdAt,value
2023-05-12T00:01:37.692Z,3.70
2023-05-12T00:04:40.896Z,4.20
2023-05-12T00:07:45.438Z,3.67
2023-05-12T00:10:48.599Z,3.47
2023-05-12T00:13:51.755Z,3.63
2023-05-12T00:16:54.974Z,3.60
2023-05-12T00:19:58.175Z,4.20
2023-05-12T00:23:02.613Z,3.47
2023-05-12T00:26:05.821Z,3.47
2023-05-12T00:29:08.858Z,3.57
2023-05-12T00:32:12.007Z,3.60
2023-05-12T00:35:16.106Z,3.40
2023-05-12T00:38:20.598Z,3.50
2023-05-12T00:41:23.602Z,3.60
2023-05-12T00:44:26.895Z,3.60
2023-05-12T00:47:30.503Z,3.50
2023-05-12T00:50:33.650Z,3.90
2023-05-12T00:53:48.390Z,3.20
2023-05-12T00:56:53.075Z,2.83
2023-05-12T00:59:56.532Z,3.50
2023-05-12T01:02:59.795Z,3.33
2023-05-12T01:06:14.139Z,3.20
2023-05-12T01:09:19.263Z,4.00
2023-05-12T01:12:22.895Z,2.97
2023-05-12T01:15:26.222Z,3.40
2023-05-12T01:18:30.254Z,3.20
2023-05-12T01:21:33.390Z,2.73
2023-05-12T01:24:44.130Z,3.37
2023-05-12T01:27:49.736Z,3.03
2023-05-12T01:30:53.094Z,3.10
2023-05-12T01:33:56.217Z,2.93
2023-05-12T01:36:59.325Z,2.80
2023-05-12T01:40:02.582Z,3.07
2023-05-12T01:43:07.132Z,3.17
2023-05-12T01:46:11.042Z,3.20
2023-05-12T01:49:14.336Z,3.50
2023-05-12T01:52:17.413Z,2.60
2023-05-12T01:55:20.599Z,2.97
2023-05-12T01:58:25.195Z,3.27
2023-05-12T02:01:28.890Z,2.50
2023-05-12T02:04:32.169Z,2.70
2023-05-12T02:07:35.223Z,2.97
2023-05-12T02:10:38.289Z,2.53
2023-05-12T02:13:44.558Z,3.00
2023-05-12T02:16:50.941Z,2.97
2023-05-12T02:19:54.039Z,2.73
2023-05-12T02:22:57.379Z,3.00
2023-05-12T02:26:00.469Z,2.50
2023-05-12T02:29:05.020Z,2.63
2023-05-12T02:32:08.688Z,2.70
2023-05-12T02:35:12.171Z,2.20
2023-05-12T02:38:15.274Z,2.13
2023-05-12T02:41:18.390Z,2.67
2023-05-12T02:44:22.876Z,2.60
2023-05-12T02:47:26.051Z,2.57
2023-05-12T02:50:29.204Z,2.57
2023-05-12T02:53:32.367Z,2.67
2023-05-12T02:56:36.279Z,2.20
2023-05-12T02:59:40.784Z,2.40
2023-05-12T03:02:44.040Z,2.73
2023-05-12T03:05:48.734Z,2.40
2023-05-12T03:08:51.821Z,2.47
2023-05-12T03:11:54.913Z,2.47
2023-05-12T03:14:59.486Z,2.60
2023-05-12T03:18:02.570Z,2.43
2023-05-12T03:21:06.429Z,2.53
2023-05-12T03:24:10.092Z,2.90
2023-05-12T03:27:13.167Z,2.30
2023-05-12T03:30:17.967Z,41.00
2023-05-12T03:33:21.375Z,31.17
2023-05-12T03:36:24.502Z,10.80
2023-05-12T03:39:27.599Z,4.83
2023-05-12T03:42:30.603Z,4.00
2023-05-12T03:45:35.119Z,4.73
2023-05-12T03:48:38.233Z,4.30
2023-05-12T03:51:41.332Z,24.83
2023-05-12T03:54:44.441Z,8.97
2023-05-12T03:57:49.335Z,9.50
2023-05-12T04:00:53.977Z,29.97
2023-05-12T04:03:57.119Z,10.17
2023-05-12T04:07:01.255Z,16.73
2023-05-12T04:10:04.461Z,11.33
2023-05-12T04:13:08.243Z,10.50
2023-05-12T04:16:12.771Z,7.93
2023-05-12T04:19:15.803Z,34.50
2023-05-12T04:22:18.845Z,111.93
2023-05-12T04:25:22.132Z,46.37
2023-05-12T04:28:25.205Z,29.27
2023-05-12T04:31:29.894Z,20.27
2023-05-12T04:34:33.104Z,29.63
2023-05-12T04:37:36.226Z,20.03
2023-05-12T04:40:39.256Z,18.10
2023-05-12T04:46:49.853Z,20.50
2023-05-12T04:49:52.954Z,24.07
2023-05-12T04:52:56.036Z,19.37
2023-05-12T04:55:59.057Z,12.83
2023-05-12T04:59:02.257Z,13.83
2023-05-12T05:02:07.252Z,16.13
2023-05-12T05:05:11.094Z,12.53
2023-05-12T05:08:14.129Z,11.83
2023-05-12T05:11:17.213Z,18.17
2023-05-12T05:14:20.258Z,9.03
2023-05-12T05:17:24.703Z,11.20
2023-05-12T05:20:29.315Z,12.00
2023-05-12T05:23:32.566Z,10.30
2023-05-12T05:26:35.904Z,10.33
2023-05-12T05:29:38.948Z,8.20
2023-05-12T05:32:43.493Z,12.00
2023-05-12T05:35:46.716Z,10.17
2023-05-12T05:38:49.787Z,9.93
2023-05-12T05:41:52.774Z,11.73
2023-05-12T05:44:56.392Z,6.10
2023-05-12T05:48:00.878Z,9.67
2023-05-12T05:51:05.049Z,7.10
2023-05-12T05:54:08.049Z,8.40
2023-05-12T05:57:11.106Z,6.07
2023-05-12T06:00:15.527Z,8.97
2023-05-12T06:03:20.117Z,8.90
2023-05-12T06:06:23.394Z,5.07
2023-05-12T06:09:26.770Z,10.80
2023-05-12T06:12:29.884Z,5.93
2023-05-12T06:15:32.939Z,8.70
2023-05-12T06:18:38.342Z,8.23
2023-05-12T06:21:41.718Z,21.47
2023-05-12T06:24:44.743Z,15.50
2023-05-12T06:27:47.884Z,18.83
2023-05-12T06:30:51.517Z,13.43
2023-05-12T06:33:55.966Z,10.23
2023-05-12T06:36:59.008Z,29.47
2023-05-12T06:40:02.254Z,9.30
2023-05-12T06:43:05.794Z,17.90
2023-05-12T06:46:08.897Z,12.23
2023-05-12T06:49:13.383Z,10.67
2023-05-12T06:52:16.855Z,10.53
2023-05-12T06:55:20.834Z,10.50
2023-05-12T06:58:24.159Z,12.60
2023-05-12T07:01:27.209Z,27.63
2023-05-12T07:04:31.705Z,16.73
2023-05-12T07:07:35.751Z,21.70
2023-05-12T07:10:40.146Z,18.57
2023-05-12T07:13:44.994Z,15.57
2023-05-12T07:16:47.995Z,14.33
2023-05-12T07:19:52.878Z,10.60
2023-05-12T07:22:56.677Z,12.40
2023-05-12T07:26:00.343Z,12.43
2023-05-12T07:29:04.321Z,11.30
2023-05-12T07:32:07.642Z,15.60
2023-05-12T07:35:12.615Z,14.10
2023-05-12T07:38:15.646Z,14.20
2023-05-12T07:41:18.912Z,15.00
2023-05-12T07:44:22.397Z,15.20
2023-05-12T07:47:25.439Z,8.80
2023-05-12T07:50:29.981Z,9.37
2023-05-12T07:53:33.013Z,12.10
2023-05-12T07:56:36.293Z,14.37
2023-05-12T07:59:39.322Z,8.43
2023-05-12T08:02:43.362Z,12.53
2023-05-12T08:05:48.071Z,7.37
2023-05-12T08:08:51.205Z,11.20
2023-05-12T08:11:54.552Z,10.33
2023-05-12T08:14:57.820Z,21.07
2023-05-12T08:18:01.009Z,11.80
2023-05-12T08:21:06.042Z,8.80
2023-05-12T08:24:09.388Z,11.73
2023-05-12T08:27:12.505Z,12.40
2023-05-12T08:30:16.012Z,9.03
2023-05-12T08:33:19.169Z,10.97
2023-05-12T08:36:23.695Z,15.87
2023-05-12T08:39:30.990Z,9.80
2023-05-12T08:42:42.742Z,9.67
2023-05-12T08:45:47.031Z,8.60
2023-05-12T08:48:53.439Z,8.80
2023-05-12T08:52:01.002Z,10.90
2023-05-12T08:55:05.939Z,8.40
2023-05-12T08:58:09.785Z,12.23
2023-05-12T09:01:14.762Z,7.10
2023-05-12T09:04:18.435Z,8.97
2023-05-12T09:07:24.553Z,7.97
2023-05-12T09:13:41.136Z,7.27
2023-05-12T09:16:49.491Z,8.23
2023-05-12T09:19:52.651Z,7.73
2023-05-12T09:22:58.353Z,7.70
2023-05-12T09:26:02.316Z,8.90
2023-05-12T09:29:08.490Z,7.13
2023-05-12T09:32:11.894Z,7.37
2023-05-12T09:35:15.084Z,6.40
2023-05-12T09:38:19.560Z,7.60
2023-05-12T09:41:24.466Z,7.90
2023-05-12T09:44:29.132Z,5.40
2023-05-12T09:47:36.907Z,5.97
2023-05-12T09:50:48.565Z,7.47
2023-05-12T09:53:53.462Z,6.00
2023-05-12T09:56:59.552Z,6.77
2023-05-12T10:00:06.092Z,6.13
2023-05-12T10:03:17.174Z,5.00
2023-05-12T10:06:23.930Z,5.83
2023-05-12T10:09:34.080Z,7.33
2023-05-12T10:12:37.450Z,5.03
2023-05-12T10:15:41.383Z,7.13
2023-05-12T10:18:45.688Z,17.33
2023-05-12T10:21:49.063Z,23.43
2023-05-12T10:24:55.845Z,33.90
2023-05-12T10:28:00.800Z,24.47
2023-05-12T10:31:06.703Z,23.93
2023-05-12T10:34:18.221Z,20.10
2023-05-12T10:37:24.432Z,19.37
2023-05-12T10:40:29.240Z,23.13
2023-05-12T10:43:40.624Z,18.57
2023-05-12T10:46:43.841Z,20.67
2023-05-12T10:49:47.071Z,13.23
2023-05-12T10:52:55.089Z,10.97
2023-05-12T10:56:00.791Z,20.13
2023-05-12T10:59:14.531Z,16.03
2023-05-12T11:02:21.226Z,9.47
2023-05-12T11:05:35.480Z,14.80
2023-05-12T11:08:40.019Z,13.80
2023-05-12T11:11:45.700Z,16.10
2023-05-12T11:14:49.143Z,12.20
2023-05-12T11:17:52.530Z,10.07
2023-05-12T11:20:55.697Z,9.93
2023-05-12T11:23:59.284Z,9.53
2023-05-12T11:27:04.767Z,17.37
2023-05-12T11:30:11.202Z,10.77
2023-05-12T11:33:14.734Z,11.10
2023-05-12T11:36:21.751Z,10.27
2023-05-12T11:39:25.966Z,9.30
2023-05-12T11:42:30.341Z,8.03
2023-05-12T11:45:34.216Z,9.80
2023-05-12T11:48:37.366Z,7.47
2023-05-12T11:51:44.029Z,6.37
2023-05-12T11:54:50.842Z,7.30
2023-05-12T11:58:00.485Z,6.20
2023-05-12T12:01:11.348Z,6.20
2023-05-12T12:04:16.786Z,8.33
2023-05-12T12:07:30.076Z,10.33
2023-05-12T12:10:33.152Z,6.70
2023-05-12T12:13:37.594Z,5.57
2023-05-12T12:16:40.664Z,8.43
2023-05-12T12:19:43.827Z,9.27
2023-05-12T12:22:46.966Z,6.83
2023-05-12T12:25:50.030Z,5.50
2023-05-12T12:28:54.446Z,7.60
2023-05-12T12:31:57.532Z,7.37
2023-05-12T12:35:03.023Z,4.80
2023-05-12T12:38:06.211Z,6.50
2023-05-12T12:41:09.406Z,8.57
2023-05-12T12:44:13.798Z,6.00
2023-05-12T12:47:17.170Z,5.00
2023-05-12T12:50:20.876Z,6.10
2023-05-12T12:53:24.010Z,5.77
2023-05-12T12:56:27.116Z,6.33
2023-05-12T12:59:31.533Z,4.40
2023-05-12T13:02:35.026Z,3.67
2023-05-12T13:05:38.741Z,4.23
2023-05-12T13:08:42.496Z,7.47
2023-05-12T13:11:46.750Z,6.53
2023-05-12T13:14:51.258Z,5.83
2023-05-12T13:17:54.413Z,4.57
2023-05-12T13:20:57.670Z,3.50
2023-05-12T13:24:00.721Z,4.90
2023-05-12T13:27:08.149Z,4.90
2023-05-12T13:30:13.767Z,5.70
2023-05-12T13:33:17.164Z,3.90
2023-05-12T13:36:20.315Z,5.33
2023-05-12T13:39:23.325Z,3.87
2023-05-12T13:42:26.979Z,6.13
2023-05-12T13:45:31.575Z,4.27
2023-05-12T13:48:34.599Z,4.10
2023-05-12T13:51:37.560Z,3.70
2023-05-12T13:54:40.622Z,4.03
2023-05-12T13:57:43.726Z,3.77
2023-05-12T14:00:48.767Z,5.30
2023-05-12T14:03:51.817Z,3.83
2023-05-12T14:06:55.531Z,4.73
2023-05-12T14:09:58.653Z,4.27
2023-05-12T14:13:01.733Z,3.83
2023-05-12T14:16:07.265Z,4.07
2023-05-12T14:19:10.417Z,4.07
2023-05-12T14:22:25.667Z,3.23
2023-05-12T14:25:30.833Z,3.30
2023-05-12T14:28:34.365Z,4.10
2023-05-12T14:31:39.007Z,4.03
2023-05-12T14:34:42.125Z,3.47
2023-05-12T14:37:45.164Z,3.93
2023-05-12T14:40:49.418Z,4.27
2023-05-12T14:43:52.527Z,3.80
2023-05-12T14:46:57.066Z,31.57
2023-05-12T14:50:00.140Z,21.53
2023-05-12T14:53:03.193Z,14.20
2023-05-12T14:56:06.567Z,11.17
2023-05-12T14:59:09.734Z,8.30
2023-05-12T15:02:14.156Z,8.30
2023-05-12T15:05:17.406Z,7.23
2023-05-12T15:08:21.716Z,42.97
2023-05-12T15:11:25.285Z,31.03
2023-05-12T15:14:28.771Z,33.33
2023-05-12T15:17:33.409Z,42.40
2023-05-12T15:20:36.542Z,44.83
2023-05-12T15:23:41.643Z,34.90
2023-05-12T15:26:44.779Z,45.80
2023-05-12T15:29:47.861Z,58.90
2023-05-12T15:32:52.549Z,58.33
2023-05-12T15:35:55.854Z,71.30
2023-05-12T15:38:59.067Z,77.27
2023-05-12T15:42:02.351Z,57.17
2023-05-12T15:45:06.194Z,63.83
2023-05-12T15:48:10.932Z,70.40
2023-05-12T15:51:14.132Z,31.43
2023-05-12T15:54:17.424Z,34.00
2023-05-12T15:57:20.476Z,30.63
2023-05-12T16:00:23.751Z,42.10
2023-05-12T16:03:28.464Z,74.10
2023-05-12T16:06:31.639Z,86.87
2023-05-12T16:09:34.725Z,83.23
2023-05-12T16:12:37.851Z,73.97
2023-05-12T16:15:40.938Z,87.43
2023-05-12T16:18:45.572Z,71.80
2023-05-12T16:21:48.645Z,65.50
2023-05-12T16:24:51.789Z,65.77
2023-05-12T16:27:54.902Z,63.93
2023-05-12T16:30:58.081Z,66.23
2023-05-12T16:34:03.373Z,53.23
2023-05-12T16:37:06.848Z,64.07
2023-05-12T16:40:10.891Z,46.50
2023-05-12T16:43:14.026Z,51.30
2023-05-12T16:46:17.155Z,43.27
2023-05-12T16:49:21.618Z,41.77
2023-05-12T16:52:24.732Z,43.57
2023-05-12T16:55:28.056Z,37.20
2023-05-12T16:58:32.376Z,36.63
2023-05-12T17:01:36.232Z,49.03
2023-05-12T17:04:40.817Z,32.50
2023-05-12T17:07:43.952Z,41.90
2023-05-12T17:10:47.637Z,55.03
2023-05-12T17:13:50.761Z,50.50
2023-05-12T17:16:53.985Z,57.20
2023-05-12T17:19:58.792Z,53.17
2023-05-12T17:23:02.670Z,54.47
2023-05-12T17:26:06.199Z,46.37
2023-05-12T17:29:09.860Z,45.43
2023-05-12T17:32:13.040Z,44.90
2023-05-12T17:35:17.666Z,42.83
2023-05-12T17:38:21.544Z,49.53
2023-05-12T17:41:26.376Z,42.90
2023-05-12T17:44:30.113Z,52.23
2023-05-12T17:47:33.354Z,42.73
2023-05-12T17:50:39.451Z,43.33
2023-05-12T17:53:42.808Z,42.93
2023-05-12T17:56:45.918Z,41.13
2023-05-12T17:59:49.024Z,29.13
2023-05-12T18:02:52.429Z,35.50
2023-05-12T18:05:57.200Z,38.17
2023-05-12T18:09:00.255Z,33.40
2023-05-12T18:12:03.359Z,49.10
2023-05-12T18:15:07.493Z,35.10
2023-05-12T18:18:11.321Z,38.60
2023-05-12T18:21:15.958Z,37.23
2023-05-12T18:24:19.185Z,54.07
2023-05-12T18:27:22.410Z,39.13
2023-05-12T18:30:25.486Z,43.53
2023-05-12T18:33:28.717Z,37.27
2023-05-12T18:36:33.288Z,33.53
2023-05-12T18:39:36.577Z,31.90
2023-05-12T18:42:39.783Z,29.13
2023-05-12T18:45:42.927Z,29.63
2023-05-12T18:48:46.109Z,25.30
2023-05-12T18:51:50.711Z,20.80
2023-05-12T18:54:53.746Z,25.43
2023-05-12T18:57:56.863Z,17.90
2023-05-12T19:01:00.064Z,16.40
2023-05-12T19:04:03.801Z,19.50
2023-05-12T19:07:09.949Z,18.13
2023-05-12T19:10:13.424Z,24.00
2023-05-12T19:13:16.626Z,23.30
2023-05-12T19:16:19.723Z,25.33
2023-05-12T19:19:22.881Z,23.20
2023-05-12T19:22:28.209Z,25.83
2023-05-12T19:25:31.306Z,19.03
2023-05-12T19:28:34.553Z,21.67
2023-05-12T19:31:37.772Z,18.30
2023-05-12T19:34:41.185Z,23.47
2023-05-12T19:37:45.768Z,29.03
2023-05-12T19:40:48.885Z,32.90
2023-05-12T19:43:52.000Z,28.93
2023-05-12T19:46:56.750Z,29.33
2023-05-12T19:49:59.930Z,27.73
2023-05-12T19:53:04.540Z,29.43
2023-05-12T19:56:08.163Z,21.97
2023-05-12T19:59:11.325Z,21.80
2023-05-12T20:02:18.036Z,30.33
2023-05-12T20:05:21.521Z,21.60
2023-05-12T20:08:26.201Z,23.37
2023-05-12T20:11:29.450Z,18.87
2023-05-12T20:14:32.918Z,17.57
2023-05-12T20:17:36.609Z,20.00
2023-05-12T20:20:39.727Z,15.63
2023-05-12T20:23:44.501Z,16.30
2023-05-12T20:26:47.565Z,16.10
2023-05-12T20:29:50.643Z,19.80
2023-05-12T20:32:53.819Z,11.17
2023-05-12T20:35:56.994Z,16.10
2023-05-12T20:39:01.497Z,10.70
2023-05-12T20:42:05.065Z,12.40
2023-05-12T20:45:09.259Z,12.03
2023-05-12T20:48:12.397Z,37.63
2023-05-12T20:51:15.888Z,31.30
2023-05-12T20:54:20.385Z,27.90
2023-05-12T20:57:23.457Z,22.20
2023-05-12T21:00:26.613Z,21.83
2023-05-12T21:03:29.713Z,23.33
2023-05-12T21:06:33.920Z,22.93
2023-05-12T21:09:38.599Z,23.47
2023-05-12T21:12:41.772Z,21.37
2023-05-12T21:15:45.197Z,23.20
2023-05-12T21:18:48.371Z,20.33
2023-05-12T21:21:51.437Z,22.00
2023-05-12T21:24:55.848Z,22.73
2023-05-12T21:27:58.888Z,22.40
2023-05-12T21:31:01.938Z,24.00
2023-05-12T21:34:04.953Z,21.73
2023-05-12T21:37:08.002Z,20.77
2023-05-12T21:40:13.562Z,30.20
2023-05-12T21:43:16.620Z,22.80
2023-05-12T21:46:19.748Z,21.63
2023-05-12T21:49:22.970Z,20.80
2023-05-12T21:52:26.294Z,20.40
2023-05-12T21:55:30.819Z,22.60
2023-05-12T21:58:33.845Z,23.97
2023-05-12T22:01:37.080Z,27.10
2023-05-12T22:04:40.532Z,24.77
2023-05-12T22:07:43.563Z,21.03
2023-05-12T22:10:48.136Z,24.03
2023-05-12T22:13:51.437Z,21.03
2023-05-12T22:16:54.829Z,21.53
2023-05-12T22:19:58.018Z,21.27
2023-05-12T22:23:01.162Z,20.23
2023-05-12T22:26:05.790Z,21.27
2023-05-12T22:29:08.837Z,18.63
2023-05-12T22:32:11.926Z,19.67
2023-05-12T22:35:15.240Z,19.40
2023-05-12T22:38:18.298Z,19.03
2023-05-12T22:41:22.791Z,21.70
2023-05-12T22:44:25.898Z,18.87
2023-05-12T22:47:29.059Z,16.57
2023-05-12T22:50:32.265Z,17.57
2023-05-12T22:53:36.843Z,18.00
2023-05-12T22:56:41.339Z,16.97
2023-05-12T22:59:44.471Z,17.53
2023-05-12T23:02:47.629Z,17.20
2023-05-12T23:05:50.835Z,15.70
2023-05-12T23:08:53.960Z,17.73
2023-05-12T23:11:58.570Z,17.13
2023-05-12T23:15:01.681Z,15.23
2023-05-12T23:18:05.222Z,16.70
2023-05-12T23:21:08.473Z,15.80
2023-05-12T23:24:11.608Z,15.40
2023-05-12T23:27:16.180Z,16.23
2023-05-12T23:30:19.424Z,16.73
2023-05-12T23:33:22.759Z,16.10
2023-05-12T23:36:25.971Z,15.80
2023-05-12T23:39:29.178Z,15.70
2023-05-12T23:42:33.645Z,14.83
2023-05-12T23:45:36.815Z,14.80
2023-05-12T23:48:39.976Z,15.43
2023-05-12T23:51:43.309Z,14.77
2023-05-12T23:54:46.417Z,14.60
2023-05-12T23:57:51.142Z,14.87
